This is the latest recevied weather packets stored in our database for station/object K0CVS. If no packets are shown the sender has not sent any weather packets the latest 1 day(s).
| Time | Temp. | Humidity | Pressure | Rain* | Wind** | Luminosity | Snow |
|---|---|---|---|---|---|---|---|
| 1778007003 | 8.89° C | 82% | 1012.4 hPa | 0 mm | 0 m/s | 100 W/m² | - |
| 1778006701 | 8.89° C | 82% | 1012.3 hPa | 0 mm | 0.45 m/s, 184° | 124 W/m² | - |
| 1778006397 | 9.44° C | 86% | 1012.2 hPa | 0 mm | 0 m/s | 134 W/m² | - |
| 1778006094 | 9.44° C | 88% | 1012.6 hPa | 0 mm | 0 m/s | 116 W/m² | - |
| 1778005790 | 8.89° C | 89% | 1012.7 hPa | 0 mm | 0 m/s | 114 W/m² | - |
| 1778005488 | 8.89° C | 88% | 1012.7 hPa | 0 mm | 0 m/s | 113 W/m² | - |
| 1778005184 | 8.89° C | 87% | 1013.1 hPa | 0 mm | 0 m/s | 87 W/m² | - |
| 1778004881 | 8.89° C | 87% | 1013 hPa | 0 mm | 0 m/s | 120 W/m² | - |
| 1778004578 | 8.89° C | 87% | 1013 hPa | 0 mm | 0 m/s | 110 W/m² | - |
| 1778004274 | 8.89° C | 88% | 1013.2 hPa | 0 mm | 0 m/s | 97 W/m² | - |
| 1778003971 | 8.89° C | 89% | 1013.1 hPa | 0 mm | 0 m/s | 80 W/m² | - |
| 1778003667 | 8.89° C | 88% | 1013.1 hPa | 1.78 mm | 0 m/s | 69 W/m² | - |
| 1778003364 | 8.33° C | 88% | 1013.1 hPa | 1.78 mm | 0 m/s | 88 W/m² | - |
| 1778003062 | 8.33° C | 87% | 1013.4 hPa | 0 mm | 0 m/s | 80 W/m² | - |
| 1778002757 | 8.33° C | 87% | 1013.2 hPa | 0 mm | 0 m/s | 67 W/m² | - |
| 1778002454 | 8.33° C | 87% | 1013.2 hPa | 0 mm | 0 m/s | 57 W/m² | - |
| 1778002151 | 8.33° C | 88% | 1013.1 hPa | 0 mm | 0 m/s | 64 W/m² | - |
| 1778001849 | 8.89° C | 88% | 1013.2 hPa | 0 mm | 0 m/s | 73 W/m² | - |
| 1778001548 | 8.33° C | 88% | 1013 hPa | 0 mm | 0 m/s | 119 W/m² | - |
| 1778001246 | 8.33° C | 88% | 1013.1 hPa | 0 mm | 0.45 m/s, 222° | 128 W/m² | - |
| 1778000942 | 8.33° C | 89% | 1013.4 hPa | 0 mm | 0 m/s | 99 W/m² | - |
| 1778000639 | 8.33° C | 88% | 1013.1 hPa | 0 mm | 0 m/s | 87 W/m² | - |
| 1778000334 | 8.33° C | 89% | 1013.1 hPa | 0 mm | 0 m/s | 56 W/m² | - |
| 1778000030 | 8.33° C | 88% | 1012.7 hPa | 0 mm | 0 m/s | 79 W/m² | - |
| 1777999726 | 8.33° C | 89% | 1012.9 hPa | 0 mm | 0.45 m/s, 350° | 96 W/m² | - |
* Rain latest hour (hover to see other rain measurements)
** Current wind speed in m/s (hover to see current wind gust speed)